Picabo, Idaho
Current Conditions -  °F | °C
As of 12:47 PM on Monday 26 Jan 2015 (Local Time) from KSUN Reporting Station
Clear Clear  
Wind Chill: 44°   Ceiling: Unl
Heat Index: 46°   Visibility: 10mi
Dew Point: 28°   Wind: 5mph
Humidity: 50%   Direction: 300°WNW
Pressure: 30.31"   Gusts: NA
Location:  43.31°N, 114.07°W
Report Text: KSUN 261947Z 30004KT 10SM SKC 08/M02 A3031
Loading
Personal Weather Stations






























Interactive Weather Map New forecast layout! Learn more

10-Day Weather Forecast

Advertisements
Track Severe Weather on mobile